createdAt,value
2017-02-05T00:00:16.056Z,22.68
2017-02-05T00:01:16.809Z,22.67
2017-02-05T00:02:15.960Z,22.7
2017-02-05T00:03:16.019Z,22.61
2017-02-05T00:04:15.925Z,22.68
2017-02-05T00:05:15.978Z,22.72
2017-02-05T00:06:16.037Z,22.7
2017-02-05T00:07:15.994Z,22.65
2017-02-05T00:08:15.600Z,22.72
2017-02-05T00:09:16.053Z,22.65
2017-02-05T00:10:16.008Z,22.72
2017-02-05T00:11:16.063Z,22.62
2017-02-05T00:12:17.598Z,22.58
2017-02-05T00:13:16.029Z,22.72
2017-02-05T00:14:16.932Z,22.7
2017-02-05T00:15:15.644Z,22.7
2017-02-05T00:16:15.995Z,22.73
2017-02-05T00:17:16.103Z,22.67
2017-02-05T00:18:16.056Z,22.58
2017-02-05T00:19:16.014Z,22.68
2017-02-05T00:20:16.074Z,22.72
2017-02-05T00:21:16.076Z,22.67
2017-02-05T00:22:15.633Z,22.68
2017-02-05T00:23:16.137Z,22.58
2017-02-05T00:24:16.092Z,22.72
2017-02-05T00:25:17.053Z,22.7
2017-02-05T00:26:16.157Z,22.65
2017-02-05T00:27:16.160Z,22.65
2017-02-05T00:28:16.117Z,22.76
2017-02-05T00:29:16.078Z,22.68
2017-02-05T00:30:16.081Z,22.68
2017-02-05T00:31:16.137Z,22.68
2017-02-05T00:32:16.047Z,22.8
2017-02-05T00:33:16.099Z,22.72
2017-02-05T00:34:16.115Z,22.7
2017-02-05T00:35:16.210Z,22.67
2017-02-05T00:36:17.515Z,22.65
2017-02-05T00:37:16.127Z,22.65
2017-02-05T00:38:16.129Z,22.57
2017-02-05T00:39:16.184Z,22.7
2017-02-05T00:40:16.191Z,22.68
2017-02-05T00:41:16.246Z,22.62
2017-02-05T00:42:16.204Z,22.65
2017-02-05T00:43:17.162Z,22.7
2017-02-05T00:44:16.263Z,22.7
2017-02-05T00:45:16.471Z,22.72
2017-02-05T00:46:16.176Z,22.73
2017-02-05T00:47:15.886Z,22.68
2017-02-05T00:48:16.241Z,22.77
2017-02-05T00:49:16.293Z,22.67
2017-02-05T00:50:16.253Z,22.62
2017-02-05T00:51:16.306Z,22.6
2017-02-05T00:52:16.212Z,22.68
2017-02-05T00:53:16.320Z,22.72
2017-02-05T00:54:17.389Z,22.72
2017-02-05T00:55:16.588Z,22.62
2017-02-05T00:56:16.738Z,22.76
2017-02-05T00:57:16.245Z,22.68
2017-02-05T00:58:16.056Z,22.7
2017-02-05T00:59:16.256Z,22.58
2017-02-05T01:00:16.310Z,22.61
2017-02-05T01:01:16.416Z,22.61
2017-02-05T01:02:15.979Z,22.55
2017-02-05T01:03:16.678Z,22.58
2017-02-05T01:04:15.937Z,22.57
2017-02-05T01:05:16.760Z,22.55
2017-02-05T01:06:16.299Z,22.57
2017-02-05T01:07:17.054Z,22.61
2017-02-05T01:08:16.411Z,22.54
2017-02-05T01:09:16.413Z,22.61
2017-02-05T01:10:16.371Z,22.61
2017-02-05T01:11:16.428Z,22.49
2017-02-05T01:12:16.329Z,22.57
2017-02-05T01:13:16.437Z,22.57
2017-02-05T01:14:16.393Z,22.58
2017-02-05T01:15:16.008Z,22.6
2017-02-05T01:16:16.411Z,22.58
2017-02-05T01:17:16.067Z,22.6
2017-02-05T01:18:17.469Z,22.58
2017-02-05T01:19:16.523Z,22.68
2017-02-05T01:20:16.988Z,22.62
2017-02-05T01:21:16.489Z,22.65
2017-02-05T01:22:16.471Z,22.62
2017-02-05T01:23:16.400Z,22.61
2017-02-05T01:24:16.505Z,22.6
2017-02-05T01:25:16.457Z,22.45
2017-02-05T01:26:16.517Z,22.49
2017-02-05T01:27:16.420Z,22.62
2017-02-05T01:28:16.478Z,22.61
2017-02-05T01:29:16.485Z,22.57
2017-02-05T01:30:16.489Z,22.58
2017-02-05T01:31:17.456Z,22.55
2017-02-05T01:32:16.158Z,22.67
2017-02-05T01:33:16.457Z,22.61
2017-02-05T01:34:16.513Z,22.54
2017-02-05T01:35:16.074Z,22.54
2017-02-05T01:36:16.575Z,22.57
2017-02-05T01:37:16.580Z,22.62
2017-02-05T01:38:16.540Z,22.57
2017-02-05T01:39:16.495Z,22.61
2017-02-05T01:40:16.501Z,22.6
2017-02-05T01:41:16.556Z,22.61
2017-02-05T01:42:16.218Z,22.62
2017-02-05T01:43:16.616Z,22.6
2017-02-05T01:44:16.524Z,22.62
2017-02-05T01:45:16.581Z,22.52
2017-02-05T01:46:16.590Z,22.58
2017-02-05T01:47:16.640Z,22.55
2017-02-05T01:48:16.151Z,22.58
2017-02-05T01:49:16.806Z,22.58
2017-02-05T01:50:16.557Z,22.61
2017-02-05T01:51:16.563Z,22.58
2017-02-05T01:52:16.619Z,22.55
2017-02-05T01:53:16.627Z,22.57
2017-02-05T01:54:16.632Z,22.61
2017-02-05T01:55:16.991Z,22.57
2017-02-05T01:56:16.643Z,22.57
2017-02-05T01:57:16.651Z,22.57
2017-02-05T01:58:16.705Z,22.58
2017-02-05T01:59:16.619Z,22.55
2017-02-05T02:00:16.771Z,22.52
2017-02-05T02:01:16.705Z,22.51
2017-02-05T02:02:16.683Z,22.6
2017-02-05T02:03:15.903Z,22.61
2017-02-05T02:04:16.644Z,22.55
2017-02-05T02:05:16.643Z,22.57
2017-02-05T02:06:16.309Z,22.57
2017-02-05T02:07:16.756Z,22.57
2017-02-05T02:08:16.763Z,22.57
2017-02-05T02:09:16.426Z,22.54
2017-02-05T02:10:16.774Z,22.57
2017-02-05T02:11:17.883Z,22.52
2017-02-05T02:12:16.793Z,22.57
2017-02-05T02:13:17.343Z,22.58
2017-02-05T02:14:16.750Z,22.58
2017-02-05T02:15:16.755Z,22.58
2017-02-05T02:16:16.763Z,22.6
2017-02-05T02:17:16.767Z,22.57
2017-02-05T02:18:16.488Z,22.61
2017-02-05T02:19:16.779Z,22.62
2017-02-05T02:20:16.341Z,22.49
2017-02-05T02:21:16.344Z,22.52
2017-02-05T02:22:17.770Z,22.54
2017-02-05T02:23:16.803Z,22.51
2017-02-05T02:24:17.708Z,22.55
2017-02-05T02:25:16.865Z,22.52
2017-02-05T02:26:16.907Z,22.61
2017-02-05T02:27:16.430Z,22.46
2017-02-05T02:28:17.083Z,22.55
2017-02-05T02:29:16.786Z,22.57
2017-02-05T02:30:16.844Z,22.61
2017-02-05T02:31:16.801Z,22.61
2017-02-05T02:32:16.409Z,22.57
2017-02-05T02:33:16.922Z,22.51
2017-02-05T02:34:17.166Z,22.49
2017-02-05T02:35:18.047Z,22.49
2017-02-05T02:36:16.928Z,22.47
2017-02-05T02:37:16.937Z,22.57
2017-02-05T02:38:16.447Z,22.52
2017-02-05T02:39:16.896Z,22.57
2017-02-05T02:40:16.852Z,22.58
2017-02-05T02:41:16.908Z,22.57
2017-02-05T02:42:16.863Z,22.62
2017-02-05T02:43:16.875Z,22.6
2017-02-05T02:44:16.732Z,22.6
2017-02-05T02:45:16.933Z,22.6
2017-02-05T02:46:18.612Z,22.62
2017-02-05T02:47:16.502Z,22.58
2017-02-05T02:48:16.953Z,22.58
2017-02-05T02:49:16.956Z,22.57
2017-02-05T02:50:17.012Z,22.57
2017-02-05T02:51:17.017Z,22.58
2017-02-05T02:52:16.923Z,22.68
2017-02-05T02:53:16.988Z,22.68
2017-02-05T02:54:16.983Z,22.72
2017-02-05T02:55:17.545Z,22.72
2017-02-05T02:56:16.603Z,22.64
2017-02-05T02:57:17.004Z,22.68
2017-02-05T02:58:16.667Z,22.7
2017-02-05T02:59:17.015Z,22.55
2017-02-05T03:00:17.075Z,22.7
2017-02-05T03:01:16.977Z,22.61
2017-02-05T03:02:17.035Z,22.65
2017-02-05T03:03:16.995Z,22.58
2017-02-05T03:04:17.095Z,22.67
2017-02-05T03:05:17.053Z,22.68
2017-02-05T03:06:17.998Z,22.64
2017-02-05T03:07:16.620Z,22.61
2017-02-05T03:08:17.226Z,22.58
2017-02-05T03:09:17.126Z,22.64
2017-02-05T03:10:17.034Z,22.61
2017-02-05T03:11:17.192Z,22.6
2017-02-05T03:12:16.801Z,22.6
2017-02-05T03:13:17.135Z,22.61
2017-02-05T03:14:16.801Z,22.57
2017-02-05T03:15:17.071Z,22.65
2017-02-05T03:16:17.120Z,22.62
2017-02-05T03:17:18.477Z,22.58
2017-02-05T03:18:17.084Z,22.57
2017-02-05T03:19:17.590Z,22.61
2017-02-05T03:20:17.148Z,22.61
2017-02-05T03:21:17.150Z,22.58
2017-02-05T03:22:17.157Z,22.58
2017-02-05T03:23:16.822Z,22.62
2017-02-05T03:24:17.160Z,22.62
2017-02-05T03:25:17.176Z,22.61
2017-02-05T03:26:16.837Z,22.57
2017-02-05T03:27:17.185Z,22.57
2017-02-05T03:28:17.142Z,22.57
2017-02-05T03:29:16.803Z,22.72
2017-02-05T03:30:18.407Z,22.57
2017-02-05T03:31:17.161Z,22.55
2017-02-05T03:32:16.820Z,22.68
2017-02-05T03:33:17.272Z,22.68
2017-02-05T03:34:17.238Z,22.75
2017-02-05T03:35:17.189Z,22.65
2017-02-05T03:36:16.896Z,22.64
2017-02-05T03:37:17.298Z,22.7
2017-02-05T03:38:16.909Z,22.61
2017-02-05T03:39:17.164Z,22.6
2017-02-05T03:40:17.313Z,22.55
2017-02-05T03:41:17.521Z,22.58
2017-02-05T03:42:17.378Z,22.6
2017-02-05T03:43:17.285Z,22.57
2017-02-05T03:44:16.950Z,22.49
2017-02-05T03:45:16.848Z,22.57
2017-02-05T03:46:17.252Z,22.54
2017-02-05T03:47:17.309Z,22.62
2017-02-05T03:48:17.315Z,22.6
2017-02-05T03:49:17.318Z,22.61
2017-02-05T03:50:17.876Z,22.57
2017-02-05T03:51:16.986Z,22.55
2017-02-05T03:52:17.339Z,22.57
2017-02-05T03:53:17.349Z,22.51
2017-02-05T03:54:17.452Z,22.57
2017-02-05T03:55:16.959Z,22.55
2017-02-05T03:56:17.418Z,22.57
2017-02-05T03:57:17.366Z,22.57
2017-02-05T03:58:17.375Z,22.6
2017-02-05T03:59:17.430Z,22.57
2017-02-05T04:00:17.337Z,22.61
2017-02-05T04:01:18.819Z,22.57
2017-02-05T04:02:17.346Z,22.47
2017-02-05T04:03:17.818Z,22.54
2017-02-05T04:04:17.012Z,22.52
2017-02-05T04:05:17.016Z,22.6
2017-02-05T04:06:17.123Z,22.57
2017-02-05T04:07:17.080Z,22.54
2017-02-05T04:08:17.433Z,22.58
2017-02-05T04:09:17.489Z,22.55
2017-02-05T04:10:17.393Z,22.58
2017-02-05T04:11:17.444Z,22.62
2017-02-05T04:12:18.416Z,22.58
2017-02-05T04:13:17.413Z,22.62
2017-02-05T04:14:17.917Z,22.67
2017-02-05T04:15:17.421Z,22.57
2017-02-05T04:16:17.480Z,22.57
2017-02-05T04:17:17.584Z,22.61
2017-02-05T04:18:17.490Z,22.62
2017-02-05T04:19:17.448Z,22.57
2017-02-05T04:20:17.204Z,22.57
2017-02-05T04:21:17.508Z,22.6
2017-02-05T04:22:17.565Z,22.6
2017-02-05T04:23:18.333Z,22.61
2017-02-05T04:24:17.578Z,22.57
2017-02-05T04:25:17.731Z,22.57
2017-02-05T04:26:17.545Z,22.52
2017-02-05T04:27:18.604Z,22.57
2017-02-05T04:28:17.548Z,22.46
2017-02-05T04:29:17.803Z,22.51
2017-02-05T04:30:17.563Z,22.51
2017-02-05T04:31:17.223Z,22.52
2017-02-05T04:32:17.623Z,22.52
2017-02-05T04:33:17.629Z,22.54
2017-02-05T04:34:17.137Z,22.55
2017-02-05T04:35:17.594Z,22.61
2017-02-05T04:36:17.402Z,22.6
2017-02-05T04:37:17.634Z,22.58
2017-02-05T04:38:18.838Z,22.58
2017-02-05T04:39:17.616Z,22.61
2017-02-05T04:40:17.665Z,22.52
2017-02-05T04:41:17.627Z,22.51
2017-02-05T04:42:17.634Z,22.61
2017-02-05T04:43:17.647Z,22.49
2017-02-05T04:44:17.644Z,22.54
2017-02-05T04:45:17.305Z,22.57
2017-02-05T04:46:17.656Z,22.47
2017-02-05T04:47:17.719Z,22.58
2017-02-05T04:48:17.618Z,22.49
2017-02-05T04:49:18.207Z,22.52
2017-02-05T04:50:17.678Z,22.47
2017-02-05T04:51:17.293Z,22.58
2017-02-05T04:52:17.694Z,22.51
2017-02-05T04:53:17.749Z,22.61
2017-02-05T04:54:17.258Z,22.52
2017-02-05T04:55:17.661Z,22.58
2017-02-05T04:56:17.715Z,22.57
2017-02-05T04:57:17.720Z,22.47
2017-02-05T04:58:17.828Z,22.62
2017-02-05T04:59:17.689Z,22.58
2017-02-05T05:00:18.743Z,22.45
2017-02-05T05:01:17.697Z,22.43
2017-02-05T05:02:17.757Z,22.49
2017-02-05T05:03:17.759Z,22.51
2017-02-05T05:04:17.814Z,22.45
2017-02-05T05:05:17.721Z,22.47
2017-02-05T05:06:17.828Z,22.45
2017-02-05T05:07:17.731Z,22.51
2017-02-05T05:08:17.740Z,22.54
2017-02-05T05:09:17.790Z,22.51
2017-02-05T05:10:17.653Z,22.58
2017-02-05T05:11:18.553Z,22.51
2017-02-05T05:12:17.413Z,22.61
2017-02-05T05:13:17.814Z,22.61
2017-02-05T05:14:17.772Z,22.46
2017-02-05T05:15:17.432Z,22.55
2017-02-05T05:16:17.881Z,22.55
2017-02-05T05:17:17.889Z,22.47
2017-02-05T05:18:17.847Z,22.54
2017-02-05T05:19:17.801Z,22.55
2017-02-05T05:20:17.911Z,22.58
2017-02-05T05:21:17.865Z,22.49
2017-02-05T05:22:18.224Z,22.47
2017-02-05T05:23:17.826Z,22.57
2017-02-05T05:24:17.883Z,22.57
2017-02-05T05:25:17.540Z,22.47
2017-02-05T05:26:17.899Z,22.55
2017-02-05T05:27:17.850Z,22.49
2017-02-05T05:28:17.557Z,22.52
2017-02-05T05:29:17.911Z,22.57
2017-02-05T05:30:18.016Z,22.62
2017-02-05T05:31:17.873Z,22.51
2017-02-05T05:32:17.879Z,22.46
2017-02-05T05:33:18.086Z,22.57
2017-02-05T05:34:17.942Z,22.58
2017-02-05T05:35:19.170Z,22.57
2017-02-05T05:36:17.556Z,22.6
2017-02-05T05:37:17.961Z,22.54
2017-02-05T05:38:18.015Z,22.61
2017-02-05T05:39:17.968Z,22.61
2017-02-05T05:40:17.976Z,22.58
2017-02-05T05:41:17.981Z,22.51
2017-02-05T05:42:17.938Z,22.6
2017-02-05T05:43:17.993Z,22.62
2017-02-05T05:44:17.999Z,22.47
2017-02-05T05:45:17.264Z,22.47
2017-02-05T05:46:19.245Z,22.52
2017-02-05T05:47:17.621Z,22.6
2017-02-05T05:48:17.628Z,22.49
2017-02-05T05:49:18.030Z,22.61
2017-02-05T05:50:17.638Z,22.57
2017-02-05T05:51:18.093Z,22.54
2017-02-05T05:52:18.047Z,22.58
2017-02-05T05:53:17.611Z,22.54
2017-02-05T05:54:17.663Z,22.57
2017-02-05T05:55:18.062Z,22.51
2017-02-05T05:56:18.018Z,22.54
2017-02-05T05:57:19.128Z,22.6
2017-02-05T05:58:18.040Z,22.6
2017-02-05T05:59:17.992Z,22.61
2017-02-05T06:00:17.696Z,22.57
2017-02-05T06:01:17.655Z,22.57
2017-02-05T06:02:17.673Z,22.57
2017-02-05T06:03:17.707Z,22.64
2017-02-05T06:04:18.118Z,22.47
2017-02-05T06:05:18.122Z,22.6
2017-02-05T06:06:18.187Z,22.57
2017-02-05T06:07:17.687Z,22.57
2017-02-05T06:08:19.208Z,22.55
2017-02-05T06:09:18.196Z,22.55
2017-02-05T06:10:18.059Z,22.58
2017-02-05T06:11:17.813Z,22.51
2017-02-05T06:12:17.718Z,22.58
2017-02-05T06:13:18.170Z,22.51
2017-02-05T06:14:18.176Z,22.6
2017-02-05T06:15:17.831Z,22.62
2017-02-05T06:16:17.793Z,22.62
2017-02-05T06:17:18.242Z,22.55
2017-02-05T06:18:17.807Z,22.45
2017-02-05T06:19:19.377Z,22.51
2017-02-05T06:20:17.367Z,22.55
2017-02-05T06:21:18.321Z,22.6
2017-02-05T06:22:18.219Z,22.51
2017-02-05T06:23:17.835Z,22.51
2017-02-05T06:24:18.242Z,22.54
2017-02-05T06:25:18.188Z,22.55
2017-02-05T06:26:17.801Z,22.45
2017-02-05T06:27:18.255Z,22.62
2017-02-05T06:28:17.916Z,22.51
2017-02-05T06:29:18.264Z,22.54
2017-02-05T06:30:19.271Z,22.58
2017-02-05T06:31:18.380Z,22.52
2017-02-05T06:32:18.283Z,22.58
2017-02-05T06:33:18.340Z,22.51
2017-02-05T06:34:18.291Z,22.57
2017-02-05T06:35:18.297Z,22.49
2017-02-05T06:36:18.309Z,22.57
2017-02-05T06:37:18.310Z,22.54
2017-02-05T06:38:18.395Z,22.61
2017-02-05T06:39:18.323Z,22.61
2017-02-05T06:40:18.378Z,22.55
2017-02-05T06:41:19.586Z,22.61
2017-02-05T06:42:18.641Z,22.51
2017-02-05T06:43:18.297Z,22.61
2017-02-05T06:44:18.454Z,22.52
2017-02-05T06:45:19.169Z,22.61
2017-02-05T06:46:18.365Z,22.51
2017-02-05T06:47:18.371Z,22.51
2017-02-05T06:48:18.426Z,22.6
2017-02-05T06:49:18.332Z,22.58
2017-02-05T06:50:18.439Z,22.61
2017-02-05T06:51:18.393Z,22.6
2017-02-05T06:52:18.608Z,22.49
2017-02-05T06:53:18.358Z,22.55
2017-02-05T06:54:18.018Z,22.55
2017-02-05T06:55:18.370Z,22.57
2017-02-05T06:56:19.224Z,22.52
2017-02-05T06:57:18.482Z,22.64
2017-02-05T06:58:18.040Z,22.6
2017-02-05T06:59:18.392Z,22.49
2017-02-05T07:00:18.450Z,22.61
2017-02-05T07:01:18.404Z,22.52
2017-02-05T07:02:18.461Z,22.47
2017-02-05T07:03:18.467Z,22.55
2017-02-05T07:04:18.527Z,22.47
2017-02-05T07:05:18.479Z,22.52
2017-02-05T07:06:17.640Z,22.52
2017-02-05T07:07:19.192Z,22.61
2017-02-05T07:08:18.749Z,22.6
2017-02-05T07:09:18.506Z,22.52
2017-02-05T07:10:18.113Z,22.65
2017-02-05T07:11:18.118Z,22.57
2017-02-05T07:12:18.472Z,22.57
2017-02-05T07:13:18.575Z,22.57
2017-02-05T07:14:18.530Z,22.55
2017-02-05T07:15:18.145Z,22.57
2017-02-05T07:16:18.596Z,22.57
2017-02-05T07:17:18.552Z,22.61
2017-02-05T07:18:19.309Z,22.52
2017-02-05T07:19:18.561Z,22.51
2017-02-05T07:20:18.614Z,22.61
2017-02-05T07:21:18.127Z,22.57
2017-02-05T07:22:18.579Z,22.55
2017-02-05T07:23:18.836Z,22.47
2017-02-05T07:24:18.542Z,22.52
2017-02-05T07:25:18.601Z,22.47
2017-02-05T07:26:18.658Z,22.54
2017-02-05T07:27:19.634Z,22.51
2017-02-05T07:28:18.720Z,22.52
2017-02-05T07:29:19.033Z,22.52
2017-02-05T07:30:18.683Z,22.55
2017-02-05T07:31:18.635Z,22.57
2017-02-05T07:32:18.590Z,22.52
2017-02-05T07:33:18.646Z,22.52
2017-02-05T07:34:19.006Z,22.51
2017-02-05T07:35:18.608Z,22.61
2017-02-05T07:36:18.666Z,22.57
2017-02-05T07:37:18.669Z,22.6
2017-02-05T07:38:19.534Z,22.54
2017-02-05T07:39:18.337Z,22.57
2017-02-05T07:40:18.790Z,22.54
2017-02-05T07:41:18.642Z,22.6
2017-02-05T07:42:19.675Z,22.62
2017-02-05T07:43:18.761Z,22.52
2017-02-05T07:44:18.713Z,22.52
2017-02-05T07:45:18.370Z,22.51
2017-02-05T07:46:18.723Z,22.58
2017-02-05T07:47:18.681Z,22.61
2017-02-05T07:48:18.738Z,22.58
2017-02-05T07:49:18.298Z,22.57
2017-02-05T07:50:18.799Z,22.57
2017-02-05T07:51:19.109Z,22.57
2017-02-05T07:52:18.814Z,22.57
2017-02-05T07:53:18.718Z,22.54
2017-02-05T07:54:18.823Z,22.54
2017-02-05T07:55:18.882Z,22.55
2017-02-05T07:56:18.850Z,22.6
2017-02-05T07:57:18.395Z,22.61
2017-02-05T07:58:18.795Z,22.54
2017-02-05T07:59:18.810Z,22.54
2017-02-05T08:00:18.764Z,22.57
2017-02-05T08:01:18.816Z,22.62
2017-02-05T08:02:19.271Z,22.47
2017-02-05T08:03:18.877Z,22.57
2017-02-05T08:04:18.436Z,22.55
2017-02-05T08:05:18.841Z,22.6
2017-02-05T08:06:18.846Z,22.57
2017-02-05T08:07:18.849Z,22.55
2017-02-05T08:08:18.907Z,22.46
2017-02-05T08:09:18.860Z,22.46
2017-02-05T08:10:18.870Z,22.49
2017-02-05T08:11:18.870Z,22.57
2017-02-05T08:12:18.832Z,22.52
2017-02-05T08:13:19.088Z,22.52
2017-02-05T08:14:18.547Z,22.46
2017-02-05T08:15:20.373Z,22.62
2017-02-05T08:16:18.906Z,22.58
2017-02-05T08:17:18.912Z,22.47
2017-02-05T08:18:18.467Z,22.57
2017-02-05T08:19:18.967Z,22.57
2017-02-05T08:20:18.977Z,22.45
2017-02-05T08:21:18.937Z,22.45
2017-02-05T08:22:18.942Z,22.45
2017-02-05T08:23:18.994Z,22.52
2017-02-05T08:24:18.808Z,22.46
2017-02-05T08:25:18.959Z,22.52
2017-02-05T08:26:20.064Z,22.54
2017-02-05T08:27:18.624Z,22.52
2017-02-05T08:28:19.020Z,22.62
2017-02-05T08:29:19.030Z,22.61
2017-02-05T08:30:19.042Z,22.52
2017-02-05T08:31:18.949Z,22.62
2017-02-05T08:32:18.949Z,22.6
2017-02-05T08:33:19.059Z,22.65
2017-02-05T08:34:19.011Z,22.73
2017-02-05T08:35:19.022Z,22.73
2017-02-05T08:36:19.026Z,22.73
2017-02-05T08:37:20.305Z,22.75
2017-02-05T08:38:19.093Z,22.7
2017-02-05T08:39:19.143Z,22.73
2017-02-05T08:40:19.003Z,22.73
2017-02-05T08:41:19.111Z,22.67
2017-02-05T08:42:19.009Z,22.67
2017-02-05T08:43:19.121Z,22.61
2017-02-05T08:44:19.023Z,22.73
2017-02-05T08:45:19.135Z,22.67
2017-02-05T08:46:19.087Z,22.73
2017-02-05T08:47:19.145Z,22.67
2017-02-05T08:48:19.914Z,22.79
2017-02-05T08:49:19.158Z,22.8
2017-02-05T08:50:19.269Z,22.8
2017-02-05T08:51:19.118Z,22.88
2017-02-05T08:52:18.780Z,22.9
2017-02-05T08:53:19.136Z,22.83
2017-02-05T08:54:19.140Z,22.95
2017-02-05T08:55:19.198Z,22.98
2017-02-05T08:56:19.111Z,22.91
2017-02-05T08:57:19.165Z,23
2017-02-05T08:58:19.580Z,22.98
2017-02-05T08:59:20.261Z,23.17
2017-02-05T09:00:19.239Z,23.17
2017-02-05T09:01:19.197Z,23.23
2017-02-05T09:02:19.154Z,23.2
2017-02-05T09:03:19.267Z,23.17
2017-02-05T09:04:18.777Z,23.16
2017-02-05T09:05:19.230Z,23.38
2017-02-05T09:06:19.193Z,23.32
2017-02-05T09:07:19.349Z,23.36
2017-02-05T09:08:19.312Z,23.43
2017-02-05T09:09:19.272Z,23.42
2017-02-05T09:10:20.034Z,23.4
2017-02-05T09:11:19.392Z,23.58
2017-02-05T09:12:19.253Z,23.54
2017-02-05T09:13:19.410Z,23.61
2017-02-05T09:14:20.271Z,23.58
2017-02-05T09:15:19.335Z,23.6
2017-02-05T09:16:19.391Z,23.54
2017-02-05T09:17:18.567Z,23.57
2017-02-05T09:18:19.363Z,23.61
2017-02-05T09:19:19.372Z,23.73
2017-02-05T09:20:19.332Z,23.91
2017-02-05T09:21:19.599Z,23.91
2017-02-05T09:22:18.957Z,23.98
2017-02-05T09:23:19.461Z,23.95
2017-02-05T09:24:19.426Z,24
2017-02-05T09:25:20.089Z,23.93
2017-02-05T09:26:19.105Z,23.95
2017-02-05T09:27:19.456Z,23.88
2017-02-05T09:28:19.467Z,23.79
2017-02-05T09:29:19.478Z,23.69
2017-02-05T09:30:19.491Z,23.69
2017-02-05T09:31:19.498Z,23.65
2017-02-05T09:32:19.609Z,23.57
2017-02-05T09:33:19.470Z,23.78
2017-02-05T09:34:19.533Z,23.63
2017-02-05T09:35:19.647Z,23.61
2017-02-05T09:36:20.207Z,23.61
2017-02-05T09:37:19.567Z,23.6
2017-02-05T09:38:19.184Z,23.65
2017-02-05T09:39:19.577Z,23.65
2017-02-05T09:40:19.698Z,23.7
2017-02-05T09:41:19.562Z,23.61
2017-02-05T09:42:19.621Z,23.7
2017-02-05T09:43:19.628Z,23.61
2017-02-05T09:44:19.641Z,23.63
2017-02-05T09:45:21.227Z,23.61
2017-02-05T09:46:19.712Z,23.68
2017-02-05T09:47:20.019Z,23.66
2017-02-05T09:48:19.684Z,23.58
2017-02-05T09:49:19.791Z,23.53
2017-02-05T09:50:19.753Z,23.54
2017-02-05T09:51:19.266Z,23.55
2017-02-05T09:52:19.672Z,23.53
2017-02-05T09:53:19.729Z,23.53
2017-02-05T09:54:19.740Z,23.47
2017-02-05T09:55:19.798Z,23.51
2017-02-05T09:56:20.656Z,23.54
2017-02-05T09:57:19.818Z,23.55
2017-02-05T09:58:19.974Z,23.54
2017-02-05T09:59:19.733Z,23.55
2017-02-05T10:00:19.740Z,23.48
2017-02-05T10:01:19.801Z,23.51
2017-02-05T10:02:19.857Z,23.54
2017-02-05T10:03:19.474Z,23.54
2017-02-05T10:04:18.983Z,23.5
2017-02-05T10:05:19.830Z,23.51
2017-02-05T10:06:19.890Z,23.53
2017-02-05T10:07:20.997Z,23.5
2017-02-05T10:08:20.157Z,23.42
2017-02-05T10:09:19.419Z,23.4
2017-02-05T10:10:19.869Z,23.43
2017-02-05T10:11:20.640Z,23.4
2017-02-05T10:12:19.936Z,23.39
2017-02-05T10:13:19.843Z,23.33
2017-02-05T10:14:19.954Z,23.28
2017-02-05T10:15:19.857Z,23.33
2017-02-05T10:16:19.567Z,23.28
2017-02-05T10:17:19.923Z,23.32
2017-02-05T10:18:19.931Z,23.28
2017-02-05T10:19:19.937Z,23.23
2017-02-05T10:20:19.848Z,23.27
2017-02-05T10:21:20.000Z,23.19
2017-02-05T10:22:21.259Z,23.13
2017-02-05T10:23:20.068Z,23.07
2017-02-05T10:24:19.577Z,23
2017-02-05T10:25:19.979Z,23.07
2017-02-05T10:26:20.039Z,23
2017-02-05T10:27:19.998Z,23.05
2017-02-05T10:28:20.004Z,23.04
2017-02-05T10:29:19.620Z,23.01
2017-02-05T10:30:19.224Z,23
2017-02-05T10:31:20.022Z,22.97
2017-02-05T10:32:20.083Z,22.86
2017-02-05T10:33:21.141Z,22.91
2017-02-05T10:34:20.094Z,22.88
2017-02-05T10:35:20.053Z,22.8
2017-02-05T10:36:19.960Z,22.92
2017-02-05T10:37:20.063Z,22.91
2017-02-05T10:38:20.169Z,22.92
2017-02-05T10:39:20.133Z,22.91
2017-02-05T10:40:20.092Z,22.79
2017-02-05T10:41:20.139Z,22.85
2017-02-05T10:42:20.055Z,22.76
2017-02-05T10:43:20.208Z,22.77
2017-02-05T10:44:21.014Z,22.7
2017-02-05T10:45:20.154Z,22.67
2017-02-05T10:46:20.266Z,22.76
2017-02-05T10:47:20.131Z,22.77
2017-02-05T10:48:19.693Z,22.77
2017-02-05T10:49:20.151Z,22.83
2017-02-05T10:50:20.208Z,22.83
2017-02-05T10:51:20.217Z,22.77
2017-02-05T10:52:20.118Z,22.8
2017-02-05T10:53:19.778Z,22.73
2017-02-05T10:54:20.280Z,22.83
2017-02-05T10:55:20.344Z,22.73
2017-02-05T10:56:20.248Z,22.77
2017-02-05T10:57:20.208Z,22.72
2017-02-05T10:58:20.211Z,22.73
2017-02-05T10:59:20.262Z,22.76
2017-02-05T11:00:20.220Z,22.68
2017-02-05T11:01:20.327Z,22.77
2017-02-05T11:02:20.139Z,22.72
2017-02-05T11:03:20.243Z,22.68
2017-02-05T11:04:20.297Z,22.6
2017-02-05T11:05:20.303Z,22.58
2017-02-05T11:06:20.767Z,22.6
2017-02-05T11:07:20.317Z,22.61
2017-02-05T11:08:20.272Z,22.65
2017-02-05T11:09:20.235Z,22.72
2017-02-05T11:10:20.288Z,22.72
2017-02-05T11:11:20.315Z,22.67
2017-02-05T11:12:20.356Z,22.7
2017-02-05T11:13:19.566Z,22.72
2017-02-05T11:14:19.865Z,22.67
2017-02-05T11:15:20.373Z,22.64
2017-02-05T11:16:20.034Z,22.7
2017-02-05T11:17:20.883Z,22.58
2017-02-05T11:18:20.337Z,22.61
2017-02-05T11:19:20.296Z,22.62
2017-02-05T11:20:20.401Z,22.6
2017-02-05T11:21:19.963Z,22.58
2017-02-05T11:22:20.414Z,22.61
2017-02-05T11:23:20.371Z,22.65
2017-02-05T11:24:20.430Z,22.6
2017-02-05T11:25:20.382Z,22.62
2017-02-05T11:26:19.995Z,22.72
2017-02-05T11:27:20.385Z,22.68
2017-02-05T11:28:20.805Z,22.72
2017-02-05T11:29:20.016Z,22.65
2017-02-05T11:30:20.426Z,22.68
2017-02-05T11:31:20.775Z,22.64
2017-02-05T11:32:20.480Z,22.73
2017-02-05T11:33:20.436Z,22.7
2017-02-05T11:34:20.391Z,22.72
2017-02-05T11:35:20.448Z,22.67
2017-02-05T11:36:20.809Z,22.65
2017-02-05T11:37:20.512Z,22.67
2017-02-05T11:38:20.122Z,22.68
2017-02-05T11:39:21.027Z,22.65
2017-02-05T11:40:20.583Z,22.61
2017-02-05T11:41:19.754Z,22.58
2017-02-05T11:42:20.052Z,22.61
2017-02-05T11:43:31.313Z,22.6
2017-02-05T11:44:20.557Z,22.57
2017-02-05T11:45:20.174Z,22.57
2017-02-05T11:46:20.135Z,22.58
2017-02-05T11:47:20.577Z,22.57
2017-02-05T11:48:20.144Z,22.52
2017-02-05T11:49:20.540Z,22.61
2017-02-05T11:50:20.402Z,22.6
2017-02-05T11:51:20.594Z,22.6
2017-02-05T11:52:22.033Z,22.52
2017-02-05T11:53:20.614Z,22.51
2017-02-05T11:54:21.126Z,22.58
2017-02-05T11:55:20.628Z,22.49
2017-02-05T11:56:20.244Z,22.51
2017-02-05T11:57:20.591Z,22.55
2017-02-05T11:58:20.600Z,22.51
2017-02-05T11:59:20.556Z,22.52
2017-02-05T12:00:20.615Z,22.47
2017-02-05T12:01:20.667Z,22.52
2017-02-05T12:02:20.674Z,22.52
2017-02-05T12:03:21.616Z,22.55
2017-02-05T12:04:20.693Z,22.47
2017-02-05T12:05:21.147Z,22.49
2017-02-05T12:06:20.901Z,22.42
2017-02-05T12:07:20.705Z,22.57
2017-02-05T12:08:20.678Z,22.52
2017-02-05T12:09:20.274Z,22.51
2017-02-05T12:10:20.305Z,22.49
2017-02-05T12:11:20.681Z,22.52
2017-02-05T12:12:20.241Z,22.45
2017-02-05T12:13:20.744Z,22.39
2017-02-05T12:14:22.226Z,22.43
2017-02-05T12:15:20.763Z,22.52
2017-02-05T12:16:21.160Z,22.4
2017-02-05T12:17:20.722Z,22.37
2017-02-05T12:18:20.681Z,22.4
2017-02-05T12:19:20.836Z,22.45
2017-02-05T12:20:20.838Z,22.45
2017-02-05T12:21:20.745Z,22.36
2017-02-05T12:22:20.802Z,22.42
2017-02-05T12:23:20.762Z,22.54
2017-02-05T12:24:20.818Z,22.39
2017-02-05T12:25:21.621Z,22.42
2017-02-05T12:26:20.779Z,22.42
2017-02-05T12:27:21.144Z,22.42
2017-02-05T12:28:20.015Z,22.36
2017-02-05T12:29:20.875Z,22.39
2017-02-05T12:30:20.466Z,22.4
2017-02-05T12:31:20.437Z,22.4
2017-02-05T12:32:20.836Z,22.42
2017-02-05T12:33:20.899Z,22.31
2017-02-05T12:34:20.948Z,22.52
2017-02-05T12:35:20.007Z,22.46
2017-02-05T12:36:21.724Z,22.47
2017-02-05T12:37:20.548Z,22.51
2017-02-05T12:38:20.871Z,22.57
2017-02-05T12:39:20.533Z,22.55
2017-02-05T12:40:21.770Z,22.55
2017-02-05T12:41:20.145Z,22.57
2017-02-05T12:42:20.596Z,22.55
2017-02-05T12:43:20.507Z,22.6
2017-02-05T12:44:20.906Z,22.68
2017-02-05T12:45:20.912Z,22.73
2017-02-05T12:46:20.941Z,22.67
2017-02-05T12:47:20.932Z,22.61
2017-02-05T12:48:20.911Z,22.62
2017-02-05T12:49:21.687Z,22.58
2017-02-05T12:50:21.087Z,22.65
2017-02-05T12:51:22.484Z,22.65
2017-02-05T12:52:21.020Z,22.68
2017-02-05T12:53:20.972Z,22.64
2017-02-05T12:54:20.132Z,22.6
2017-02-05T12:55:20.683Z,22.6